createdAt,value
2024-04-14T00:00:57.865Z,96509.31
2024-04-14T00:03:44.197Z,96513.44
2024-04-14T00:06:31.406Z,96511.75
2024-04-14T00:09:17.498Z,96504.25
2024-04-14T00:12:03.981Z,96511.50
2024-04-14T00:14:50.891Z,96510.69
2024-04-14T00:17:38.191Z,96496.50
2024-04-14T00:20:26.109Z,96496.50
2024-04-14T00:23:12.878Z,96492.50
2024-04-14T00:25:58.992Z,96498.56
2024-04-14T00:28:46.366Z,96494.38
2024-04-14T00:31:34.067Z,96496.16
2024-04-14T00:34:22.621Z,96483.28
2024-04-14T00:37:08.842Z,96485.41
2024-04-14T00:39:55.002Z,96496.59
2024-04-14T00:42:41.835Z,96492.41
2024-04-14T00:45:29.091Z,96500.03
2024-04-14T00:48:15.634Z,96499.75
2024-04-14T00:51:04.802Z,96482.03
2024-04-14T00:53:51.629Z,96495.06
2024-04-14T00:56:37.959Z,96496.06
2024-04-14T00:59:24.038Z,96494.41
2024-04-14T01:02:10.091Z,96486.91
2024-04-14T01:04:56.749Z,96502.69
2024-04-14T01:07:43.357Z,96498.50
2024-04-14T01:10:31.085Z,96499.53
2024-04-14T01:13:17.549Z,96482.63
2024-04-14T01:16:04.542Z,96495.19
2024-04-14T01:18:51.352Z,96482.75
2024-04-14T01:21:38.121Z,96485.59
2024-04-14T01:24:24.802Z,96482.28
2024-04-14T01:27:14.069Z,96484.34
2024-04-14T01:30:08.864Z,96478.47
2024-04-14T01:32:55.319Z,96479.50
2024-04-14T01:35:41.822Z,96479.22
2024-04-14T01:38:28.310Z,96475.84
2024-04-14T01:41:14.487Z,96480.78
2024-04-14T01:44:01.086Z,96476.63
2024-04-14T01:46:47.738Z,96476.97
2024-04-14T01:49:33.852Z,96479.75
2024-04-14T01:52:20.547Z,96478.38
2024-04-14T01:55:07.040Z,96479.59
2024-04-14T01:57:53.455Z,96478.09
2024-04-14T02:00:40.102Z,96476.78
2024-04-14T02:03:26.932Z,96482.16
2024-04-14T02:06:13.330Z,96474.84
2024-04-14T02:08:59.599Z,96482.94
2024-04-14T02:11:46.046Z,96475.22
2024-04-14T02:14:32.474Z,96477.47
2024-04-14T02:17:19.250Z,96478.47
2024-04-14T02:20:06.035Z,96482.38
2024-04-14T02:22:52.971Z,96477.75
2024-04-14T02:25:40.287Z,96473.34
2024-04-14T02:28:27.197Z,96475.06
2024-04-14T02:31:13.595Z,96474.78
2024-04-14T02:33:59.923Z,96481.81
2024-04-14T02:36:46.549Z,96495.06
2024-04-14T02:39:34.061Z,96484.31
2024-04-14T02:42:20.190Z,96489.69
2024-04-14T02:45:06.637Z,96486.16
2024-04-14T02:47:52.911Z,96482.38
2024-04-14T02:50:39.597Z,96476.78
2024-04-14T02:53:27.054Z,96490.03
2024-04-14T02:56:13.228Z,96486.53
2024-04-14T02:58:59.245Z,96481.88
2024-04-14T03:01:46.871Z,96488.38
2024-04-14T03:04:33.155Z,96485.34
2024-04-14T03:07:19.529Z,96482.84
2024-04-14T03:10:06.253Z,96482.63
2024-04-14T03:12:52.794Z,96490.03
2024-04-14T03:15:38.989Z,96485.69
2024-04-14T03:18:25.591Z,96482.38
2024-04-14T03:21:11.499Z,96469.28
2024-04-14T03:23:57.723Z,96479.47
2024-04-14T03:26:46.265Z,96475.88
2024-04-14T03:29:32.267Z,96493.00
2024-04-14T03:32:18.715Z,96497.75
2024-04-14T03:35:06.226Z,96489.59
2024-04-14T03:37:52.625Z,96480.38
2024-04-14T03:40:38.615Z,96482.88
2024-04-14T03:43:25.909Z,96474.69
2024-04-14T03:46:12.012Z,96486.28
2024-04-14T03:48:58.778Z,96487.22
2024-04-14T03:51:45.348Z,96503.63
2024-04-14T03:54:31.876Z,96495.63
2024-04-14T03:57:18.098Z,96496.66
2024-04-14T04:00:05.573Z,96510.09
2024-04-14T04:03:00.967Z,96504.06
2024-04-14T04:05:55.530Z,96499.78
2024-04-14T04:08:41.561Z,96508.69
2024-04-14T04:11:30.287Z,96511.53
2024-04-14T04:14:16.611Z,96504.38
2024-04-14T04:17:03.394Z,96514.22
2024-04-14T04:19:49.679Z,96510.88
2024-04-14T04:22:36.103Z,96513.56
2024-04-14T04:25:22.185Z,96512.53
2024-04-14T04:28:08.038Z,96506.88
2024-04-14T04:30:55.136Z,96518.59
2024-04-14T04:33:41.550Z,96510.69
2024-04-14T04:36:27.772Z,96522.28
2024-04-14T04:39:14.302Z,96523.28
2024-04-14T04:42:00.550Z,96528.47
2024-04-14T04:44:48.205Z,96531.50
2024-04-14T04:47:34.746Z,96521.91
2024-04-14T04:50:21.158Z,96514.50
2024-04-14T04:53:07.373Z,96515.19
2024-04-14T04:55:54.613Z,96525.50
2024-04-14T04:58:40.896Z,96520.94
2024-04-14T05:01:27.500Z,96516.03
2024-04-14T05:04:13.942Z,96524.41
2024-04-14T05:07:00.767Z,96521.16
2024-04-14T05:09:47.002Z,96518.97
2024-04-14T05:12:33.745Z,96524.63
2024-04-14T05:15:19.767Z,96514.91
2024-04-14T05:18:06.040Z,96525.38
2024-04-14T05:20:52.650Z,96529.84
2024-04-14T05:23:38.700Z,96533.84
2024-04-14T05:26:24.624Z,96528.94
2024-04-14T05:29:10.817Z,96534.22
2024-04-14T05:31:56.723Z,96533.28
2024-04-14T05:34:43.969Z,96530.53
2024-04-14T05:37:30.291Z,96524.13
2024-04-14T05:40:16.460Z,96525.06
2024-04-14T05:43:02.600Z,96534.72
2024-04-14T05:45:49.124Z,96533.97
2024-04-14T05:48:35.357Z,96525.16
2024-04-14T05:51:22.058Z,96531.06
2024-04-14T05:54:08.117Z,96528.69
2024-04-14T05:56:54.083Z,96521.25
2024-04-14T05:59:40.273Z,96516.38
2024-04-14T06:02:26.330Z,96508.56
2024-04-14T06:05:12.921Z,96511.16
2024-04-14T06:07:58.919Z,96507.53
2024-04-14T06:10:44.829Z,96507.59
2024-04-14T06:13:31.549Z,96507.47
2024-04-14T06:16:17.908Z,96509.59
2024-04-14T06:19:04.230Z,96502.59
2024-04-14T06:21:50.843Z,96496.63
2024-04-14T06:24:37.450Z,96497.50
2024-04-14T06:27:23.674Z,96496.09
2024-04-14T06:30:11.043Z,96491.03
2024-04-14T06:32:57.097Z,96489.03
2024-04-14T06:35:43.468Z,96497.19
2024-04-14T06:38:31.409Z,96495.56
2024-04-14T06:41:18.025Z,96491.25
2024-04-14T06:44:04.164Z,96484.00
2024-04-14T06:46:50.210Z,96489.03
2024-04-14T06:49:36.873Z,96481.44
2024-04-14T06:52:22.959Z,96471.28
2024-04-14T06:55:12.918Z,96475.50
2024-04-14T06:57:59.294Z,96477.44
2024-04-14T07:00:46.148Z,96482.66
2024-04-14T07:03:32.345Z,96476.06
2024-04-14T07:06:19.075Z,96475.69
2024-04-14T07:09:05.148Z,96464.50
2024-04-14T07:11:51.339Z,96472.69
2024-04-14T07:14:37.869Z,96467.09
2024-04-14T07:17:24.078Z,96464.63
2024-04-14T07:20:10.563Z,96462.16
2024-04-14T07:22:57.452Z,96458.47
2024-04-14T07:25:43.709Z,96457.63
2024-04-14T07:28:29.922Z,96453.69
2024-04-14T07:31:16.637Z,96455.19
2024-04-14T07:34:04.861Z,96449.16
2024-04-14T07:36:51.211Z,96445.41
2024-04-14T07:39:37.907Z,96457.69
2024-04-14T07:42:24.434Z,96455.00
2024-04-14T07:45:12.134Z,96453.31
2024-04-14T07:47:58.378Z,96445.19
2024-04-14T07:50:45.888Z,96437.72
2024-04-14T07:53:32.648Z,96443.56
2024-04-14T07:56:19.052Z,96440.41
2024-04-14T07:59:06.157Z,96441.03
2024-04-14T08:01:52.450Z,96437.69
2024-04-14T08:04:39.238Z,96440.59
2024-04-14T08:07:25.750Z,96445.19
2024-04-14T08:10:11.724Z,96448.91
2024-04-14T08:12:58.483Z,96440.78
2024-04-14T08:15:44.882Z,96428.06
2024-04-14T08:18:30.850Z,96433.84
2024-04-14T08:21:17.092Z,96424.06
2024-04-14T08:24:03.954Z,96428.00
2024-04-14T08:26:49.997Z,96428.81
2024-04-14T08:29:36.075Z,96423.16
2024-04-14T08:32:22.017Z,96411.88
2024-04-14T08:35:08.152Z,96420.41
2024-04-14T08:37:55.764Z,96421.22
2024-04-14T08:40:42.031Z,96413.66
2024-04-14T08:43:28.523Z,96417.78
2024-04-14T08:46:17.613Z,96420.22
2024-04-14T08:49:04.284Z,96419.56
2024-04-14T08:51:51.148Z,96411.41
2024-04-14T08:54:37.973Z,96408.06
2024-04-14T08:57:28.258Z,96409.88
2024-04-14T09:00:16.579Z,96408.78
2024-04-14T09:03:03.501Z,96413.31
2024-04-14T09:05:49.919Z,96407.47
2024-04-14T09:08:35.826Z,96401.13
2024-04-14T09:11:22.341Z,96398.59
2024-04-14T09:14:08.587Z,96388.53
2024-04-14T09:16:54.750Z,96385.78
2024-04-14T09:19:44.359Z,96389.06
2024-04-14T09:22:30.523Z,96390.06
2024-04-14T09:25:19.729Z,96385.03
2024-04-14T09:28:09.074Z,96374.13
2024-04-14T09:30:55.238Z,96373.22
2024-04-14T09:33:42.036Z,96382.25
2024-04-14T09:36:28.823Z,96373.81
2024-04-14T09:39:15.545Z,96354.97
2024-04-14T09:42:02.283Z,96356.16
2024-04-14T09:44:49.945Z,96362.22
2024-04-14T09:47:38.356Z,96351.94
2024-04-14T09:50:25.289Z,96350.44
2024-04-14T09:53:12.208Z,96339.72
2024-04-14T09:55:59.210Z,96346.94
2024-04-14T09:58:45.560Z,96329.94
2024-04-14T10:01:35.638Z,96324.69
2024-04-14T10:04:22.201Z,96322.94
2024-04-14T10:07:08.981Z,96324.97
2024-04-14T10:09:57.363Z,96325.97
2024-04-14T10:12:43.845Z,96317.09
2024-04-14T10:15:30.587Z,96320.53
2024-04-14T10:18:17.334Z,96299.03
2024-04-14T10:21:04.782Z,96310.41
2024-04-14T10:23:54.469Z,96305.09
2024-04-14T10:26:41.066Z,96289.97
2024-04-14T10:29:27.748Z,96284.88
2024-04-14T10:32:14.599Z,96287.72
2024-04-14T10:35:00.921Z,96285.13
2024-04-14T10:37:55.179Z,96282.53
2024-04-14T10:40:41.647Z,96270.13
2024-04-14T10:43:28.192Z,96266.13
2024-04-14T10:46:14.820Z,96270.63
2024-04-14T10:49:01.604Z,96279.13
2024-04-14T10:51:49.400Z,96265.69
2024-04-14T10:54:39.992Z,96258.09
2024-04-14T10:57:26.363Z,96249.84
2024-04-14T11:00:13.090Z,96252.06
2024-04-14T11:03:00.103Z,96237.06
2024-04-14T11:05:46.573Z,96245.91
2024-04-14T11:08:34.874Z,96250.31
2024-04-14T11:11:21.176Z,96239.63
2024-04-14T11:14:07.206Z,96239.16
2024-04-14T11:16:53.379Z,96239.16
2024-04-14T11:19:40.100Z,96229.09
2024-04-14T11:22:26.174Z,96229.69
2024-04-14T11:25:12.519Z,96223.66
2024-04-14T11:28:01.724Z,96232.88
2024-04-14T11:30:48.695Z,96224.81
2024-04-14T11:33:35.686Z,96215.59
2024-04-14T11:36:22.262Z,96214.88
2024-04-14T11:39:08.546Z,96207.13
2024-04-14T11:41:54.857Z,96202.53
2024-04-14T11:44:40.988Z,96208.66
2024-04-14T11:47:28.221Z,96200.03
2024-04-14T11:50:14.816Z,96195.97
2024-04-14T11:53:00.950Z,96195.50
2024-04-14T11:55:47.457Z,96192.28
2024-04-14T11:58:33.279Z,96182.34
2024-04-14T12:01:19.914Z,96182.69
2024-04-14T12:04:06.221Z,96177.94
2024-04-14T12:06:52.748Z,96176.94
2024-04-14T12:09:39.435Z,96160.59
2024-04-14T12:12:25.439Z,96148.03
2024-04-14T12:15:11.884Z,96163.19
2024-04-14T12:17:58.789Z,96154.28
2024-04-14T12:20:45.323Z,96130.78
2024-04-14T12:23:31.495Z,96140.81
2024-04-14T12:26:18.170Z,96129.66
2024-04-14T12:29:04.286Z,96135.44
2024-04-14T12:31:51.086Z,96114.19
2024-04-14T12:34:37.302Z,96106.75
2024-04-14T12:37:23.897Z,96113.97
2024-04-14T12:40:11.379Z,96112.97
2024-04-14T12:42:59.081Z,96094.44
2024-04-14T12:45:49.751Z,96090.41
2024-04-14T12:48:36.162Z,96097.66
2024-04-14T12:51:22.484Z,96085.25
2024-04-14T12:54:11.269Z,96085.09
2024-04-14T12:56:57.967Z,96077.31
2024-04-14T12:59:44.165Z,96078.78
2024-04-14T13:02:30.569Z,96070.69
2024-04-14T13:05:17.233Z,96063.97
2024-04-14T13:08:03.320Z,96064.31
2024-04-14T13:10:49.481Z,96061.34
2024-04-14T13:13:35.558Z,96056.19
2024-04-14T13:16:22.403Z,96057.34
2024-04-14T13:19:08.899Z,96045.91
2024-04-14T13:21:54.938Z,96047.38
2024-04-14T13:24:41.074Z,96037.34
2024-04-14T13:27:27.674Z,96039.53
2024-04-14T13:30:13.956Z,96030.94
2024-04-14T13:33:01.847Z,96027.53
2024-04-14T13:35:48.468Z,96024.59
2024-04-14T13:38:35.357Z,96024.28
2024-04-14T13:41:21.543Z,96026.88
2024-04-14T13:44:08.004Z,96015.22
2024-04-14T13:46:54.129Z,96020.81
2024-04-14T13:49:41.040Z,96016.22
2024-04-14T13:52:29.737Z,96014.34
2024-04-14T13:55:16.893Z,96011.38
2024-04-14T13:58:04.260Z,95999.63
2024-04-14T14:00:50.831Z,96002.75
2024-04-14T14:03:37.223Z,95999.56
2024-04-14T14:06:23.373Z,95994.69
2024-04-14T14:09:12.756Z,95992.81
2024-04-14T14:11:59.761Z,95987.34
2024-04-14T14:14:46.067Z,95992.59
2024-04-14T14:17:32.724Z,95990.44
2024-04-14T14:20:18.845Z,95989.34
2024-04-14T14:23:05.474Z,95989.38
2024-04-14T14:25:51.873Z,95982.50
2024-04-14T14:28:38.662Z,95978.66
2024-04-14T14:31:25.079Z,95976.78
2024-04-14T14:34:29.932Z,95979.22
2024-04-14T14:37:16.715Z,95978.09
2024-04-14T14:40:02.961Z,95976.22
2024-04-14T14:42:49.587Z,95979.75
2024-04-14T14:45:36.160Z,95984.47
2024-04-14T14:48:22.896Z,95980.88
2024-04-14T14:51:09.432Z,95969.91
2024-04-14T14:53:56.287Z,95976.47
2024-04-14T14:56:42.633Z,95966.81
2024-04-14T14:59:31.771Z,95964.34
2024-04-14T15:02:18.591Z,95980.53
2024-04-14T15:05:05.645Z,95972.00
2024-04-14T15:07:52.311Z,95968.69
2024-04-14T15:10:45.161Z,95974.72
2024-04-14T15:13:32.690Z,95969.72
2024-04-14T15:16:19.045Z,95975.50
2024-04-14T15:19:05.428Z,95968.91
2024-04-14T15:21:51.998Z,95965.94
2024-04-14T15:24:40.450Z,95970.59
2024-04-14T15:27:26.640Z,95972.78
2024-04-14T15:30:13.127Z,95965.13
2024-04-14T15:32:59.530Z,95965.94
2024-04-14T15:35:46.118Z,95971.16
2024-04-14T15:38:35.562Z,95959.91
2024-04-14T15:41:22.082Z,95969.56
2024-04-14T15:44:15.090Z,95964.91
2024-04-14T15:47:08.538Z,95977.53
2024-04-14T15:49:55.246Z,95963.53
2024-04-14T15:52:41.687Z,95959.19
2024-04-14T15:55:29.710Z,95965.22
2024-04-14T15:58:16.786Z,95960.03
2024-04-14T16:01:04.068Z,95962.22
2024-04-14T16:03:52.169Z,95961.94
2024-04-14T16:06:38.754Z,95958.13
2024-04-14T16:09:27.542Z,95949.09
2024-04-14T16:12:14.882Z,95951.53
2024-04-14T16:15:01.157Z,95976.44
2024-04-14T16:17:47.793Z,95963.81
2024-04-14T16:20:34.587Z,95960.53
2024-04-14T16:23:21.015Z,95956.38
2024-04-14T16:26:08.271Z,95959.94
2024-04-14T16:28:55.459Z,95969.75
2024-04-14T16:31:41.820Z,95969.16
2024-04-14T16:34:28.046Z,95962.28
2024-04-14T16:37:14.237Z,95967.97
2024-04-14T16:40:01.554Z,95969.03
2024-04-14T16:42:49.938Z,95962.41
2024-04-14T16:45:36.616Z,95965.09
2024-04-14T16:48:23.744Z,95971.06
2024-04-14T16:51:10.920Z,95961.16
2024-04-14T16:53:57.801Z,95958.38
2024-04-14T16:56:43.992Z,95961.56
2024-04-14T16:59:31.882Z,95963.13
2024-04-14T17:02:18.466Z,95961.69
2024-04-14T17:05:05.231Z,95961.38
2024-04-14T17:07:52.401Z,95959.13
2024-04-14T17:10:40.356Z,95958.75
2024-04-14T17:13:26.582Z,95958.09
2024-04-14T17:16:13.549Z,95961.59
2024-04-14T17:18:59.987Z,95954.38
2024-04-14T17:21:46.598Z,95964.16
2024-04-14T17:24:33.424Z,95955.06
2024-04-14T17:27:19.716Z,95959.06
2024-04-14T17:30:06.405Z,95959.84
2024-04-14T17:32:53.340Z,95958.13
2024-04-14T17:35:39.794Z,95954.22
2024-04-14T17:38:26.263Z,95967.00
2024-04-14T17:41:12.528Z,95973.47
2024-04-14T17:43:59.234Z,95971.19
2024-04-14T17:46:47.800Z,95970.53
2024-04-14T17:49:34.730Z,95971.19
2024-04-14T17:52:21.401Z,95979.31
2024-04-14T17:55:07.862Z,95984.97
2024-04-14T17:57:54.450Z,95984.31
2024-04-14T18:00:41.090Z,95991.03
2024-04-14T18:03:28.035Z,95996.41
2024-04-14T18:06:14.533Z,96002.03
2024-04-14T18:09:01.772Z,95995.13
2024-04-14T18:11:53.416Z,96001.06
2024-04-14T18:14:39.832Z,96007.25
2024-04-14T18:17:26.042Z,95994.28
2024-04-14T18:20:13.033Z,95999.41
2024-04-14T18:23:04.114Z,96011.63
2024-04-14T18:25:50.364Z,96010.44
2024-04-14T18:28:37.052Z,96012.00
2024-04-14T18:31:23.817Z,96022.56
2024-04-14T18:34:10.241Z,96032.00
2024-04-14T18:36:57.187Z,96021.31
2024-04-14T18:39:43.888Z,96032.13
2024-04-14T18:42:30.123Z,96033.22
2024-04-14T18:45:16.810Z,96035.88
2024-04-14T18:48:03.243Z,96029.63
2024-04-14T18:50:49.772Z,96037.22
2024-04-14T18:53:36.766Z,96029.91
2024-04-14T18:56:23.351Z,96025.91
2024-04-14T18:59:09.730Z,96040.81
2024-04-14T19:01:55.770Z,96044.50
2024-04-14T19:04:42.370Z,96041.56
2024-04-14T19:07:28.305Z,96033.31
2024-04-14T19:10:15.801Z,96043.25
2024-04-14T19:13:02.125Z,96043.59
2024-04-14T19:15:48.824Z,96046.44
2024-04-14T19:18:35.914Z,96055.31
2024-04-14T19:21:22.770Z,96058.41
2024-04-14T19:24:09.394Z,96047.88
2024-04-14T19:26:57.018Z,96051.53
2024-04-14T19:29:43.277Z,96051.41
2024-04-14T19:32:29.595Z,96056.72
2024-04-14T19:35:16.170Z,96052.19
2024-04-14T19:38:02.506Z,96060.22
2024-04-14T19:40:48.684Z,96048.88
2024-04-14T19:43:35.376Z,96050.19
2024-04-14T19:46:21.766Z,96050.53
2024-04-14T19:49:09.892Z,96051.47
2024-04-14T19:51:56.351Z,96054.63
2024-04-14T19:54:42.757Z,96062.41
2024-04-14T19:57:30.033Z,96046.78
2024-04-14T20:00:16.621Z,96061.81
2024-04-14T20:03:03.779Z,96059.16
2024-04-14T20:05:49.834Z,96048.28
2024-04-14T20:08:36.741Z,96061.84
2024-04-14T20:11:23.379Z,96058.13
2024-04-14T20:14:10.088Z,96050.09
2024-04-14T20:16:56.367Z,96063.53
2024-04-14T20:19:43.134Z,96045.75
2024-04-14T20:22:29.277Z,96060.97
2024-04-14T20:25:16.302Z,96058.13
2024-04-14T20:28:03.255Z,96058.13
2024-04-14T20:30:50.049Z,96051.34
2024-04-14T20:33:36.513Z,96038.94
2024-04-14T20:36:23.230Z,96057.25
2024-04-14T20:39:15.002Z,96045.06
2024-04-14T20:42:01.070Z,96044.28
2024-04-14T20:44:47.782Z,96048.75
2024-04-14T20:47:34.418Z,96050.00
2024-04-14T20:50:20.906Z,96046.13
2024-04-14T20:53:07.570Z,96043.69
2024-04-14T20:55:56.749Z,96048.06
2024-04-14T20:58:43.461Z,96047.09
2024-04-14T21:01:29.957Z,96054.38
2024-04-14T21:04:16.749Z,96056.09
2024-04-14T21:07:05.506Z,96059.47
2024-04-14T21:09:51.801Z,96061.78
2024-04-14T21:12:38.891Z,96047.47
2024-04-14T21:15:25.252Z,96051.84
2024-04-14T21:18:11.459Z,96059.34
2024-04-14T21:20:58.020Z,96061.91
2024-04-14T21:23:44.206Z,96060.31
2024-04-14T21:26:30.181Z,96051.16
2024-04-14T21:29:18.379Z,96044.13
2024-04-14T21:32:06.018Z,96051.44
2024-04-14T21:34:52.443Z,96045.63
2024-04-14T21:37:39.894Z,96043.81
2024-04-14T21:40:26.376Z,96045.53
2024-04-14T21:43:13.197Z,96044.91
2024-04-14T21:46:01.545Z,96049.97
2024-04-14T21:48:48.015Z,96051.66
2024-04-14T21:51:34.488Z,96054.19
2024-04-14T21:54:22.631Z,96051.13
2024-04-14T21:57:08.826Z,96040.56
2024-04-14T21:59:55.681Z,96044.50
2024-04-14T22:02:41.614Z,96044.97
2024-04-14T22:05:27.834Z,96043.94
2024-04-14T22:08:14.003Z,96052.31
2024-04-14T22:11:00.727Z,96054.84
2024-04-14T22:13:47.287Z,96056.75
2024-04-14T22:16:33.856Z,96050.50
2024-04-14T22:19:20.491Z,96050.34
2024-04-14T22:22:06.973Z,96047.03
2024-04-14T22:24:54.272Z,96051.81
2024-04-14T22:27:40.936Z,96042.28
2024-04-14T22:30:27.727Z,96042.13
2024-04-14T22:33:17.211Z,96052.09
2024-04-14T22:36:03.896Z,96039.28
2024-04-14T22:38:50.350Z,96045.94
2024-04-14T22:41:36.719Z,96049.06
2024-04-14T22:44:23.279Z,96046.16
2024-04-14T22:47:09.956Z,96048.69
2024-04-14T22:49:56.386Z,96040.19
2024-04-14T22:52:42.422Z,96038.75
2024-04-14T22:55:28.747Z,96046.25
2024-04-14T22:58:15.332Z,96008.09
2024-04-14T23:01:02.971Z,96033.59
2024-04-14T23:03:49.386Z,96045.84
2024-04-14T23:06:35.914Z,96042.75
2024-04-14T23:09:22.188Z,96043.19
2024-04-14T23:12:08.716Z,96037.16
2024-04-14T23:14:55.099Z,96036.75
2024-04-14T23:17:41.792Z,96028.63
2024-04-14T23:20:29.239Z,96032.78
2024-04-14T23:23:16.313Z,96029.91
2024-04-14T23:26:02.400Z,96037.38
2024-04-14T23:28:48.543Z,96028.88
2024-04-14T23:31:35.768Z,96028.47
2024-04-14T23:34:21.988Z,96026.63
2024-04-14T23:37:08.612Z,96026.00
2024-04-14T23:39:55.303Z,96029.13
2024-04-14T23:42:41.767Z,96024.13
2024-04-14T23:45:28.817Z,96016.66
2024-04-14T23:48:14.942Z,96019.59
2024-04-14T23:51:01.429Z,96018.75
2024-04-14T23:53:47.435Z,96012.56
2024-04-14T23:56:33.382Z,96020.44
2024-04-14T23:59:19.450Z,96017.31
